sensor_id;sensor_type;location;lat;lon;timestamp;temperature;humidity
810;DHT22;387;48.772;9.186;2023-12-28T00:00:27;10.40;51.20
810;DHT22;387;48.772;9.186;2023-12-28T00:02:52;10.10;52.50
810;DHT22;387;48.772;9.186;2023-12-28T00:05:18;10.00;51.30
810;DHT22;387;48.772;9.186;2023-12-28T00:07:44;10.10;51.00
810;DHT22;387;48.772;9.186;2023-12-28T00:10:10;10.10;51.80
810;DHT22;387;48.772;9.186;2023-12-28T00:12:35;10.00;51.80
810;DHT22;387;48.772;9.186;2023-12-28T00:15:01;9.90;53.30
810;DHT22;387;48.772;9.186;2023-12-28T00:17:26;9.70;53.80
810;DHT22;387;48.772;9.186;2023-12-28T00:19:52;9.70;53.40
810;DHT22;387;48.772;9.186;2023-12-28T00:22:18;9.70;53.30
810;DHT22;387;48.772;9.186;2023-12-28T00:24:43;9.70;53.00
810;DHT22;387;48.772;9.186;2023-12-28T00:27:09;9.70;52.40
810;DHT22;387;48.772;9.186;2023-12-28T00:29:34;9.80;52.20
810;DHT22;387;48.772;9.186;2023-12-28T00:32:07;9.90;51.80
810;DHT22;387;48.772;9.186;2023-12-28T00:34:32;9.90;51.70
810;DHT22;387;48.772;9.186;2023-12-28T00:36:58;10.00;50.70
810;DHT22;387;48.772;9.186;2023-12-28T00:39:24;10.10;50.30
810;DHT22;387;48.772;9.186;2023-12-28T00:41:49;10.20;49.90
810;DHT22;387;48.772;9.186;2023-12-28T00:44:15;10.30;49.80
810;DHT22;387;48.772;9.186;2023-12-28T00:46:40;10.30;49.80
810;DHT22;387;48.772;9.186;2023-12-28T00:49:06;10.30;49.70
810;DHT22;387;48.772;9.186;2023-12-28T00:51:32;10.40;49.70
810;DHT22;387;48.772;9.186;2023-12-28T00:53:57;10.40;49.50
810;DHT22;387;48.772;9.186;2023-12-28T00:56:23;10.40;49.80
810;DHT22;387;48.772;9.186;2023-12-28T00:58:48;10.40;49.90
810;DHT22;387;48.772;9.186;2023-12-28T01:01:14;10.30;49.90
810;DHT22;387;48.772;9.186;2023-12-28T01:03:40;10.30;50.30
810;DHT22;387;48.772;9.186;2023-12-28T01:06:06;10.30;50.70
810;DHT22;387;48.772;9.186;2023-12-28T01:08:32;10.10;51.70
810;DHT22;387;48.772;9.186;2023-12-28T01:10:59;10.10;52.20
810;DHT22;387;48.772;9.186;2023-12-28T01:13:25;9.90;52.80
810;DHT22;387;48.772;9.186;2023-12-28T01:15:51;9.80;53.20
810;DHT22;387;48.772;9.186;2023-12-28T01:18:16;9.80;53.30
810;DHT22;387;48.772;9.186;2023-12-28T01:20:42;9.70;53.70
810;DHT22;387;48.772;9.186;2023-12-28T01:23:07;9.60;54.00
810;DHT22;387;48.772;9.186;2023-12-28T01:25:33;9.50;54.20
810;DHT22;387;48.772;9.186;2023-12-28T01:27:59;9.50;54.50
810;DHT22;387;48.772;9.186;2023-12-28T01:30:25;9.30;55.20
810;DHT22;387;48.772;9.186;2023-12-28T01:32:51;9.20;55.40
810;DHT22;387;48.772;9.186;2023-12-28T01:35:17;9.10;55.40
810;DHT22;387;48.772;9.186;2023-12-28T01:37:42;9.00;55.70
810;DHT22;387;48.772;9.186;2023-12-28T01:40:08;9.10;55.40
810;DHT22;387;48.772;9.186;2023-12-28T01:42:34;9.10;55.40
810;DHT22;387;48.772;9.186;2023-12-28T01:45:01;9.00;55.60
810;DHT22;387;48.772;9.186;2023-12-28T01:47:26;9.00;55.80
810;DHT22;387;48.772;9.186;2023-12-28T01:49:53;9.10;55.70
810;DHT22;387;48.772;9.186;2023-12-28T01:52:20;9.10;55.80
810;DHT22;387;48.772;9.186;2023-12-28T01:54:45;9.10;56.50
810;DHT22;387;48.772;9.186;2023-12-28T01:57:12;8.90;56.20
810;DHT22;387;48.772;9.186;2023-12-28T01:59:39;8.90;57.00
810;DHT22;387;48.772;9.186;2023-12-28T02:02:05;8.80;57.20
810;DHT22;387;48.772;9.186;2023-12-28T02:04:31;8.90;57.00
810;DHT22;387;48.772;9.186;2023-12-28T02:07:03;8.90;56.80
810;DHT22;387;48.772;9.186;2023-12-28T02:09:29;8.90;56.80
810;DHT22;387;48.772;9.186;2023-12-28T02:11:54;8.90;57.00
810;DHT22;387;48.772;9.186;2023-12-28T02:14:21;8.80;57.70
810;DHT22;387;48.772;9.186;2023-12-28T02:17:04;8.80;58.40
810;DHT22;387;48.772;9.186;2023-12-28T02:19:53;8.70;58.40
810;DHT22;387;48.772;9.186;2023-12-28T02:22:20;8.60;58.70
810;DHT22;387;48.772;9.186;2023-12-28T02:25:11;8.50;59.70
810;DHT22;387;48.772;9.186;2023-12-28T02:27:45;8.40;60.40
810;DHT22;387;48.772;9.186;2023-12-28T02:30:16;8.20;61.20
810;DHT22;387;48.772;9.186;2023-12-28T02:35:34;8.10;61.00
810;DHT22;387;48.772;9.186;2023-12-28T02:38:07;8.00;60.00
810;DHT22;387;48.772;9.186;2023-12-28T02:40:41;8.00;60.30
810;DHT22;387;48.772;9.186;2023-12-28T02:43:10;8.00;61.70
810;DHT22;387;48.772;9.186;2023-12-28T02:45:36;7.90;62.60
810;DHT22;387;48.772;9.186;2023-12-28T02:48:03;7.80;63.20
810;DHT22;387;48.772;9.186;2023-12-28T02:50:28;7.90;63.50
810;DHT22;387;48.772;9.186;2023-12-28T02:52:57;7.80;63.80
810;DHT22;387;48.772;9.186;2023-12-28T02:55:23;7.80;64.10
810;DHT22;387;48.772;9.186;2023-12-28T02:57:50;7.70;64.20
810;DHT22;387;48.772;9.186;2023-12-28T03:00:17;7.60;64.70
810;DHT22;387;48.772;9.186;2023-12-28T03:02:43;7.40;65.10
810;DHT22;387;48.772;9.186;2023-12-28T03:05:09;7.40;63.50
810;DHT22;387;48.772;9.186;2023-12-28T03:07:35;7.50;62.80
810;DHT22;387;48.772;9.186;2023-12-28T03:10:01;7.50;62.30
810;DHT22;387;48.772;9.186;2023-12-28T03:12:28;7.60;61.60
810;DHT22;387;48.772;9.186;2023-12-28T03:14:54;7.70;61.20
810;DHT22;387;48.772;9.186;2023-12-28T03:17:20;7.80;61.00
810;DHT22;387;48.772;9.186;2023-12-28T03:19:46;8.00;61.50
810;DHT22;387;48.772;9.186;2023-12-28T03:22:11;8.00;61.50
810;DHT22;387;48.772;9.186;2023-12-28T03:24:38;7.90;61.70
810;DHT22;387;48.772;9.186;2023-12-28T03:27:04;7.90;62.30
810;DHT22;387;48.772;9.186;2023-12-28T03:29:30;7.80;63.20
810;DHT22;387;48.772;9.186;2023-12-28T03:31:56;7.80;63.70
810;DHT22;387;48.772;9.186;2023-12-28T03:34:22;7.80;63.80
810;DHT22;387;48.772;9.186;2023-12-28T03:36:48;7.90;64.40
810;DHT22;387;48.772;9.186;2023-12-28T03:39:14;7.70;64.80
810;DHT22;387;48.772;9.186;2023-12-28T03:41:40;7.70;65.30
810;DHT22;387;48.772;9.186;2023-12-28T03:44:05;7.60;65.80
810;DHT22;387;48.772;9.186;2023-12-28T03:46:31;7.50;66.10
810;DHT22;387;48.772;9.186;2023-12-28T03:48:57;7.40;66.60
810;DHT22;387;48.772;9.186;2023-12-28T03:51:22;7.30;66.90
810;DHT22;387;48.772;9.186;2023-12-28T03:53:48;7.20;67.30
810;DHT22;387;48.772;9.186;2023-12-28T03:56:25;7.30;67.60
810;DHT22;387;48.772;9.186;2023-12-28T03:58:51;7.20;67.90
810;DHT22;387;48.772;9.186;2023-12-28T04:01:21;7.10;68.30
810;DHT22;387;48.772;9.186;2023-12-28T04:03:48;7.00;68.90
810;DHT22;387;48.772;9.186;2023-12-28T04:06:14;6.90;69.20
810;DHT22;387;48.772;9.186;2023-12-28T04:08:41;6.80;69.40
810;DHT22;387;48.772;9.186;2023-12-28T04:11:07;6.70;69.50
810;DHT22;387;48.772;9.186;2023-12-28T04:13:32;6.70;69.50
810;DHT22;387;48.772;9.186;2023-12-28T04:15:58;6.70;69.70
810;DHT22;387;48.772;9.186;2023-12-28T04:18:23;6.80;69.80
810;DHT22;387;48.772;9.186;2023-12-28T04:20:49;6.80;69.80
810;DHT22;387;48.772;9.186;2023-12-28T04:23:15;6.80;69.70
810;DHT22;387;48.772;9.186;2023-12-28T04:25:41;6.80;69.80
810;DHT22;387;48.772;9.186;2023-12-28T04:28:07;6.80;69.70
810;DHT22;387;48.772;9.186;2023-12-28T04:30:33;6.80;69.70
810;DHT22;387;48.772;9.186;2023-12-28T04:33:00;6.90;69.70
810;DHT22;387;48.772;9.186;2023-12-28T04:35:25;6.90;69.20
810;DHT22;387;48.772;9.186;2023-12-28T04:37:51;7.00;68.60
810;DHT22;387;48.772;9.186;2023-12-28T04:40:16;7.10;68.60
810;DHT22;387;48.772;9.186;2023-12-28T04:42:43;7.20;68.30
810;DHT22;387;48.772;9.186;2023-12-28T04:45:09;7.30;68.30
810;DHT22;387;48.772;9.186;2023-12-28T04:47:37;7.40;68.50
810;DHT22;387;48.772;9.186;2023-12-28T04:50:04;7.30;68.60
810;DHT22;387;48.772;9.186;2023-12-28T04:52:30;7.30;68.80
810;DHT22;387;48.772;9.186;2023-12-28T04:54:56;7.30;68.90
810;DHT22;387;48.772;9.186;2023-12-28T04:57:22;7.30;68.90
810;DHT22;387;48.772;9.186;2023-12-28T04:59:50;7.30;68.90
810;DHT22;387;48.772;9.186;2023-12-28T05:02:15;7.40;68.80
810;DHT22;387;48.772;9.186;2023-12-28T05:04:41;7.40;68.80
810;DHT22;387;48.772;9.186;2023-12-28T05:07:07;7.40;68.30
810;DHT22;387;48.772;9.186;2023-12-28T05:09:32;7.40;67.90
810;DHT22;387;48.772;9.186;2023-12-28T05:11:58;7.50;67.20
810;DHT22;387;48.772;9.186;2023-12-28T05:14:24;7.50;66.90
810;DHT22;387;48.772;9.186;2023-12-28T05:16:49;7.60;66.70
810;DHT22;387;48.772;9.186;2023-12-28T05:19:15;7.70;66.60
810;DHT22;387;48.772;9.186;2023-12-28T05:21:41;7.70;66.10
810;DHT22;387;48.772;9.186;2023-12-28T05:24:06;7.80;65.70
810;DHT22;387;48.772;9.186;2023-12-28T05:26:32;7.90;65.30
810;DHT22;387;48.772;9.186;2023-12-28T05:28:58;8.00;65.10
810;DHT22;387;48.772;9.186;2023-12-28T05:31:23;8.00;64.50
810;DHT22;387;48.772;9.186;2023-12-28T05:33:50;8.20;64.50
810;DHT22;387;48.772;9.186;2023-12-28T05:36:16;8.50;63.20
810;DHT22;387;48.772;9.186;2023-12-28T05:38:42;8.80;62.50
810;DHT22;387;48.772;9.186;2023-12-28T05:41:09;9.10;62.00
810;DHT22;387;48.772;9.186;2023-12-28T05:43:35;9.20;62.20
810;DHT22;387;48.772;9.186;2023-12-28T05:46:00;9.20;62.30
810;DHT22;387;48.772;9.186;2023-12-28T05:48:26;9.20;62.20
810;DHT22;387;48.772;9.186;2023-12-28T05:50:52;9.20;61.90
810;DHT22;387;48.772;9.186;2023-12-28T05:53:17;9.30;61.20
810;DHT22;387;48.772;9.186;2023-12-28T05:55:43;9.50;60.60
810;DHT22;387;48.772;9.186;2023-12-28T05:58:09;9.50;60.60
810;DHT22;387;48.772;9.186;2023-12-28T06:00:35;9.70;60.10
810;DHT22;387;48.772;9.186;2023-12-28T06:03:08;9.70;60.00
810;DHT22;387;48.772;9.186;2023-12-28T06:05:34;9.80;60.10
810;DHT22;387;48.772;9.186;2023-12-28T06:07:59;10.00;59.70
810;DHT22;387;48.772;9.186;2023-12-28T06:10:25;10.00;60.10
810;DHT22;387;48.772;9.186;2023-12-28T06:12:50;10.10;60.30
810;DHT22;387;48.772;9.186;2023-12-28T06:15:16;10.10;60.30
810;DHT22;387;48.772;9.186;2023-12-28T06:17:42;10.30;60.00
810;DHT22;387;48.772;9.186;2023-12-28T06:20:08;10.30;60.40
810;DHT22;387;48.772;9.186;2023-12-28T06:22:37;10.50;60.00
810;DHT22;387;48.772;9.186;2023-12-28T06:25:03;10.40;60.40
810;DHT22;387;48.772;9.186;2023-12-28T06:27:29;10.70;59.90
810;DHT22;387;48.772;9.186;2023-12-28T06:29:54;10.90;59.60
810;DHT22;387;48.772;9.186;2023-12-28T06:32:20;11.00;59.30
810;DHT22;387;48.772;9.186;2023-12-28T06:34:46;11.00;59.30
810;DHT22;387;48.772;9.186;2023-12-28T06:37:12;11.10;59.20
810;DHT22;387;48.772;9.186;2023-12-28T06:39:39;11.10;59.30
810;DHT22;387;48.772;9.186;2023-12-28T06:42:04;11.10;59.50
810;DHT22;387;48.772;9.186;2023-12-28T06:44:30;11.20;59.70
810;DHT22;387;48.772;9.186;2023-12-28T06:46:56;11.20;59.90
810;DHT22;387;48.772;9.186;2023-12-28T06:49:21;11.30;59.60
810;DHT22;387;48.772;9.186;2023-12-28T06:51:47;11.30;59.70
810;DHT22;387;48.772;9.186;2023-12-28T06:54:13;11.30;59.60
810;DHT22;387;48.772;9.186;2023-12-28T06:56:40;11.30;59.70
810;DHT22;387;48.772;9.186;2023-12-28T06:59:05;11.30;59.90
810;DHT22;387;48.772;9.186;2023-12-28T07:01:31;11.30;60.30
810;DHT22;387;48.772;9.186;2023-12-28T07:03:57;11.30;60.40
810;DHT22;387;48.772;9.186;2023-12-28T07:06:24;11.10;60.70
810;DHT22;387;48.772;9.186;2023-12-28T07:08:50;11.20;61.00
810;DHT22;387;48.772;9.186;2023-12-28T07:11:16;11.10;61.30
810;DHT22;387;48.772;9.186;2023-12-28T07:13:41;11.20;61.70
810;DHT22;387;48.772;9.186;2023-12-28T07:16:07;11.20;61.70
810;DHT22;387;48.772;9.186;2023-12-28T07:18:33;11.10;62.00
810;DHT22;387;48.772;9.186;2023-12-28T07:20:58;11.10;62.30
810;DHT22;387;48.772;9.186;2023-12-28T07:23:25;11.00;62.30
810;DHT22;387;48.772;9.186;2023-12-28T07:25:51;11.00;62.90
810;DHT22;387;48.772;9.186;2023-12-28T07:28:16;11.10;62.80
810;DHT22;387;48.772;9.186;2023-12-28T07:30:42;11.20;62.50
810;DHT22;387;48.772;9.186;2023-12-28T07:33:08;11.10;62.60
810;DHT22;387;48.772;9.186;2023-12-28T07:35:33;11.00;63.20
810;DHT22;387;48.772;9.186;2023-12-28T07:37:59;11.00;63.20
810;DHT22;387;48.772;9.186;2023-12-28T07:40:25;11.00;63.20
810;DHT22;387;48.772;9.186;2023-12-28T07:42:50;11.00;63.10
810;DHT22;387;48.772;9.186;2023-12-28T07:45:16;11.10;62.90
810;DHT22;387;48.772;9.186;2023-12-28T07:47:43;11.10;62.80
810;DHT22;387;48.772;9.186;2023-12-28T07:50:10;11.20;62.50
810;DHT22;387;48.772;9.186;2023-12-28T07:52:36;11.20;62.30
810;DHT22;387;48.772;9.186;2023-12-28T07:55:03;11.30;62.80
810;DHT22;387;48.772;9.186;2023-12-28T07:57:29;11.40;62.30
810;DHT22;387;48.772;9.186;2023-12-28T07:59:56;11.40;62.80
810;DHT22;387;48.772;9.186;2023-12-28T08:02:22;11.30;62.60
810;DHT22;387;48.772;9.186;2023-12-28T08:04:47;10.80;63.40
810;DHT22;387;48.772;9.186;2023-12-28T08:07:14;10.60;64.20
810;DHT22;387;48.772;9.186;2023-12-28T08:09:39;10.50;64.50
810;DHT22;387;48.772;9.186;2023-12-28T08:12:05;10.50;64.80
810;DHT22;387;48.772;9.186;2023-12-28T08:14:31;10.50;65.30
810;DHT22;387;48.772;9.186;2023-12-28T08:16:56;10.50;65.10
810;DHT22;387;48.772;9.186;2023-12-28T08:19:22;10.50;65.10
810;DHT22;387;48.772;9.186;2023-12-28T08:21:47;10.40;65.70
810;DHT22;387;48.772;9.186;2023-12-28T08:24:13;10.40;65.80
810;DHT22;387;48.772;9.186;2023-12-28T08:26:39;10.40;65.80
810;DHT22;387;48.772;9.186;2023-12-28T08:29:05;10.40;65.60
810;DHT22;387;48.772;9.186;2023-12-28T08:31:31;10.30;65.80
810;DHT22;387;48.772;9.186;2023-12-28T08:33:56;10.40;65.40
810;DHT22;387;48.772;9.186;2023-12-28T08:36:22;10.40;65.70
810;DHT22;387;48.772;9.186;2023-12-28T08:38:48;10.40;66.00
810;DHT22;387;48.772;9.186;2023-12-28T08:41:23;10.30;66.10
810;DHT22;387;48.772;9.186;2023-12-28T08:43:52;10.40;66.40
810;DHT22;387;48.772;9.186;2023-12-28T08:46:20;10.50;66.30
810;DHT22;387;48.772;9.186;2023-12-28T08:48:45;10.40;66.70
810;DHT22;387;48.772;9.186;2023-12-28T08:51:11;10.50;67.00
810;DHT22;387;48.772;9.186;2023-12-28T08:53:36;10.50;67.30
810;DHT22;387;48.772;9.186;2023-12-28T08:56:12;10.50;67.50
810;DHT22;387;48.772;9.186;2023-12-28T08:58:38;10.40;68.00
810;DHT22;387;48.772;9.186;2023-12-28T09:01:03;10.30;68.00
810;DHT22;387;48.772;9.186;2023-12-28T09:03:29;10.20;68.00
810;DHT22;387;48.772;9.186;2023-12-28T09:05:55;10.20;68.20
810;DHT22;387;48.772;9.186;2023-12-28T09:08:20;10.20;68.30
810;DHT22;387;48.772;9.186;2023-12-28T09:10:46;10.40;68.30
810;DHT22;387;48.772;9.186;2023-12-28T09:13:15;10.50;68.00
810;DHT22;387;48.772;9.186;2023-12-28T09:15:42;10.60;68.00
810;DHT22;387;48.772;9.186;2023-12-28T09:18:09;10.50;67.90
810;DHT22;387;48.772;9.186;2023-12-28T09:20:34;10.50;68.20
810;DHT22;387;48.772;9.186;2023-12-28T09:23:01;10.50;68.20
810;DHT22;387;48.772;9.186;2023-12-28T09:25:26;10.50;68.20
810;DHT22;387;48.772;9.186;2023-12-28T09:27:52;10.50;68.50
810;DHT22;387;48.772;9.186;2023-12-28T09:30:19;10.60;68.30
810;DHT22;387;48.772;9.186;2023-12-28T09:32:44;10.70;68.30
810;DHT22;387;48.772;9.186;2023-12-28T09:35:10;10.70;68.20
810;DHT22;387;48.772;9.186;2023-12-28T09:37:36;10.90;67.50
810;DHT22;387;48.772;9.186;2023-12-28T09:40:01;11.00;67.50
810;DHT22;387;48.772;9.186;2023-12-28T09:42:33;11.00;67.70
810;DHT22;387;48.772;9.186;2023-12-28T09:45:02;11.00;67.90
810;DHT22;387;48.772;9.186;2023-12-28T09:47:29;11.00;68.60
810;DHT22;387;48.772;9.186;2023-12-28T09:49:56;11.10;68.60
810;DHT22;387;48.772;9.186;2023-12-28T09:52:22;11.20;68.60
810;DHT22;387;48.772;9.186;2023-12-28T09:54:47;11.20;69.10
810;DHT22;387;48.772;9.186;2023-12-28T09:57:13;11.20;69.40
810;DHT22;387;48.772;9.186;2023-12-28T09:59:40;11.20;69.40
810;DHT22;387;48.772;9.186;2023-12-28T10:02:06;11.30;69.20
810;DHT22;387;48.772;9.186;2023-12-28T10:04:32;11.30;69.20
810;DHT22;387;48.772;9.186;2023-12-28T10:06:58;11.50;69.10
810;DHT22;387;48.772;9.186;2023-12-28T10:09:23;11.50;68.90
810;DHT22;387;48.772;9.186;2023-12-28T10:11:53;11.50;68.80
810;DHT22;387;48.772;9.186;2023-12-28T10:14:20;11.40;68.30
810;DHT22;387;48.772;9.186;2023-12-28T10:16:46;11.40;68.80
810;DHT22;387;48.772;9.186;2023-12-28T10:19:12;11.40;68.60
810;DHT22;387;48.772;9.186;2023-12-28T10:21:39;11.40;68.30
810;DHT22;387;48.772;9.186;2023-12-28T10:24:05;11.50;68.20
810;DHT22;387;48.772;9.186;2023-12-28T10:26:31;11.50;67.90
810;DHT22;387;48.772;9.186;2023-12-28T10:28:59;11.60;67.70
810;DHT22;387;48.772;9.186;2023-12-28T10:31:25;11.60;67.60
810;DHT22;387;48.772;9.186;2023-12-28T10:33:51;11.70;67.60
810;DHT22;387;48.772;9.186;2023-12-28T10:36:18;11.80;67.30
810;DHT22;387;48.772;9.186;2023-12-28T10:38:45;11.80;67.30
810;DHT22;387;48.772;9.186;2023-12-28T10:41:14;11.80;67.50
810;DHT22;387;48.772;9.186;2023-12-28T10:46:27;11.80;67.50
810;DHT22;387;48.772;9.186;2023-12-28T10:48:59;11.80;67.60
810;DHT22;387;48.772;9.186;2023-12-28T10:51:25;11.90;67.90
810;DHT22;387;48.772;9.186;2023-12-28T10:54:44;12.00;67.70
810;DHT22;387;48.772;9.186;2023-12-28T10:57:01;12.00;67.90
810;DHT22;387;48.772;9.186;2023-12-28T10:59:45;12.00;68.00
810;DHT22;387;48.772;9.186;2023-12-28T11:02:15;12.10;68.00
810;DHT22;387;48.772;9.186;2023-12-28T11:04:48;12.20;68.20
810;DHT22;387;48.772;9.186;2023-12-28T11:07:17;12.10;68.90
810;DHT22;387;48.772;9.186;2023-12-28T11:09:43;12.10;68.80
810;DHT22;387;48.772;9.186;2023-12-28T11:12:09;12.20;68.80
810;DHT22;387;48.772;9.186;2023-12-28T11:14:38;12.20;68.80
810;DHT22;387;48.772;9.186;2023-12-28T11:17:04;12.20;68.80
810;DHT22;387;48.772;9.186;2023-12-28T11:19:31;12.10;69.40
810;DHT22;387;48.772;9.186;2023-12-28T11:22:01;12.10;69.40
810;DHT22;387;48.772;9.186;2023-12-28T11:24:30;12.10;69.40
810;DHT22;387;48.772;9.186;2023-12-28T11:26:57;12.20;69.50
810;DHT22;387;48.772;9.186;2023-12-28T11:29:23;12.20;69.50
810;DHT22;387;48.772;9.186;2023-12-28T11:31:57;12.30;69.20
810;DHT22;387;48.772;9.186;2023-12-28T11:34:28;12.20;69.50
810;DHT22;387;48.772;9.186;2023-12-28T11:36:56;12.30;69.50
810;DHT22;387;48.772;9.186;2023-12-28T11:39:31;12.30;69.20
810;DHT22;387;48.772;9.186;2023-12-28T11:42:04;12.20;69.70
810;DHT22;387;48.772;9.186;2023-12-28T11:44:31;12.30;69.70
810;DHT22;387;48.772;9.186;2023-12-28T11:46:57;12.30;69.80
810;DHT22;387;48.772;9.186;2023-12-28T11:49:26;12.30;69.80
810;DHT22;387;48.772;9.186;2023-12-28T11:51:58;12.30;69.70
810;DHT22;387;48.772;9.186;2023-12-28T11:54:25;12.30;69.90
810;DHT22;387;48.772;9.186;2023-12-28T11:56:52;12.30;69.80
810;DHT22;387;48.772;9.186;2023-12-28T11:59:19;12.20;69.80
810;DHT22;387;48.772;9.186;2023-12-28T12:01:50;12.30;69.90
810;DHT22;387;48.772;9.186;2023-12-28T12:04:17;12.40;69.80
810;DHT22;387;48.772;9.186;2023-12-28T12:06:43;12.40;69.80
810;DHT22;387;48.772;9.186;2023-12-28T12:09:11;12.50;69.50
810;DHT22;387;48.772;9.186;2023-12-28T12:11:36;12.50;69.50
810;DHT22;387;48.772;9.186;2023-12-28T12:14:03;12.40;69.50
810;DHT22;387;48.772;9.186;2023-12-28T12:16:35;12.40;69.70
810;DHT22;387;48.772;9.186;2023-12-28T12:19:01;12.40;69.50
810;DHT22;387;48.772;9.186;2023-12-28T12:21:27;12.40;69.50
810;DHT22;387;48.772;9.186;2023-12-28T12:23:54;12.40;69.70
810;DHT22;387;48.772;9.186;2023-12-28T12:26:20;12.40;69.50
810;DHT22;387;48.772;9.186;2023-12-28T12:28:46;12.40;69.50
810;DHT22;387;48.772;9.186;2023-12-28T12:31:13;12.30;69.50
810;DHT22;387;48.772;9.186;2023-12-28T12:33:39;12.40;69.50
810;DHT22;387;48.772;9.186;2023-12-28T12:36:06;12.40;69.50
810;DHT22;387;48.772;9.186;2023-12-28T12:38:33;12.40;69.50
810;DHT22;387;48.772;9.186;2023-12-28T12:40:59;12.60;69.70
810;DHT22;387;48.772;9.186;2023-12-28T12:43:25;12.50;69.40
810;DHT22;387;48.772;9.186;2023-12-28T12:45:52;12.60;69.20
810;DHT22;387;48.772;9.186;2023-12-28T12:48:17;12.70;69.40
810;DHT22;387;48.772;9.186;2023-12-28T12:50:43;12.70;69.40
810;DHT22;387;48.772;9.186;2023-12-28T12:53:09;12.70;69.50
810;DHT22;387;48.772;9.186;2023-12-28T12:55:37;12.80;69.50
810;DHT22;387;48.772;9.186;2023-12-28T12:58:09;12.90;69.10
810;DHT22;387;48.772;9.186;2023-12-28T13:00:35;12.90;68.60
810;DHT22;387;48.772;9.186;2023-12-28T13:03:01;13.00;68.60
810;DHT22;387;48.772;9.186;2023-12-28T13:05:27;12.90;68.90
810;DHT22;387;48.772;9.186;2023-12-28T13:07:54;12.90;69.10
810;DHT22;387;48.772;9.186;2023-12-28T13:10:20;12.80;69.10
810;DHT22;387;48.772;9.186;2023-12-28T13:12:46;12.60;69.20
810;DHT22;387;48.772;9.186;2023-12-28T13:15:11;12.60;69.50
810;DHT22;387;48.772;9.186;2023-12-28T13:17:37;12.70;69.50
810;DHT22;387;48.772;9.186;2023-12-28T13:20:04;12.70;69.40
810;DHT22;387;48.772;9.186;2023-12-28T13:22:31;12.80;69.50
810;DHT22;387;48.772;9.186;2023-12-28T13:24:58;12.80;69.50
810;DHT22;387;48.772;9.186;2023-12-28T13:27:23;12.80;69.40
810;DHT22;387;48.772;9.186;2023-12-28T13:29:49;12.70;69.70
810;DHT22;387;48.772;9.186;2023-12-28T13:32:15;12.70;69.70
810;DHT22;387;48.772;9.186;2023-12-28T13:34:40;12.70;69.70
810;DHT22;387;48.772;9.186;2023-12-28T13:37:06;12.60;69.90
810;DHT22;387;48.772;9.186;2023-12-28T13:39:32;12.50;70.10
810;DHT22;387;48.772;9.186;2023-12-28T13:41:58;12.40;69.90
810;DHT22;387;48.772;9.186;2023-12-28T13:44:24;12.40;70.20
810;DHT22;387;48.772;9.186;2023-12-28T13:46:50;12.40;70.20
810;DHT22;387;48.772;9.186;2023-12-28T13:49:15;12.40;70.40
810;DHT22;387;48.772;9.186;2023-12-28T13:51:41;12.40;70.40
810;DHT22;387;48.772;9.186;2023-12-28T13:54:07;12.30;70.50
810;DHT22;387;48.772;9.186;2023-12-28T13:56:32;12.20;70.50
810;DHT22;387;48.772;9.186;2023-12-28T13:58:58;12.20;70.70
810;DHT22;387;48.772;9.186;2023-12-28T14:01:23;12.10;71.00
810;DHT22;387;48.772;9.186;2023-12-28T14:03:49;12.10;71.10
810;DHT22;387;48.772;9.186;2023-12-28T14:06:17;12.10;71.10
810;DHT22;387;48.772;9.186;2023-12-28T14:08:42;12.10;71.40
810;DHT22;387;48.772;9.186;2023-12-28T14:11:08;11.90;71.70
810;DHT22;387;48.772;9.186;2023-12-28T14:13:35;11.80;72.10
810;DHT22;387;48.772;9.186;2023-12-28T14:16:03;11.90;72.30
810;DHT22;387;48.772;9.186;2023-12-28T14:18:28;11.90;72.10
810;DHT22;387;48.772;9.186;2023-12-28T14:20:54;11.90;72.10
810;DHT22;387;48.772;9.186;2023-12-28T14:23:20;11.90;71.70
810;DHT22;387;48.772;9.186;2023-12-28T14:25:45;11.80;72.10
810;DHT22;387;48.772;9.186;2023-12-28T14:28:17;11.80;72.60
810;DHT22;387;48.772;9.186;2023-12-28T14:30:43;11.80;73.20
810;DHT22;387;48.772;9.186;2023-12-28T14:33:10;11.80;73.00
810;DHT22;387;48.772;9.186;2023-12-28T14:35:36;11.70;73.50
810;DHT22;387;48.772;9.186;2023-12-28T14:38:04;11.60;74.00
810;DHT22;387;48.772;9.186;2023-12-28T14:40:32;11.60;74.30
810;DHT22;387;48.772;9.186;2023-12-28T14:42:57;11.50;74.90
810;DHT22;387;48.772;9.186;2023-12-28T14:45:23;11.60;74.60
810;DHT22;387;48.772;9.186;2023-12-28T14:47:49;11.70;74.20
810;DHT22;387;48.772;9.186;2023-12-28T14:50:14;11.70;73.90
810;DHT22;387;48.772;9.186;2023-12-28T14:52:40;11.60;74.20
810;DHT22;387;48.772;9.186;2023-12-28T14:55:08;11.60;74.60
810;DHT22;387;48.772;9.186;2023-12-28T14:57:34;11.70;74.50
810;DHT22;387;48.772;9.186;2023-12-28T15:00:00;11.80;73.70
810;DHT22;387;48.772;9.186;2023-12-28T15:02:25;11.70;73.70
810;DHT22;387;48.772;9.186;2023-12-28T15:04:51;11.80;73.50
810;DHT22;387;48.772;9.186;2023-12-28T15:07:17;11.70;72.90
810;DHT22;387;48.772;9.186;2023-12-28T15:09:44;11.50;73.20
810;DHT22;387;48.772;9.186;2023-12-28T15:12:10;11.50;73.60
810;DHT22;387;48.772;9.186;2023-12-28T15:14:36;11.50;73.90
810;DHT22;387;48.772;9.186;2023-12-28T15:17:02;11.50;73.70
810;DHT22;387;48.772;9.186;2023-12-28T15:19:30;11.40;73.30
810;DHT22;387;48.772;9.186;2023-12-28T15:21:56;11.40;73.30
810;DHT22;387;48.772;9.186;2023-12-28T15:24:22;11.40;73.50
810;DHT22;387;48.772;9.186;2023-12-28T15:26:48;11.40;73.20
810;DHT22;387;48.772;9.186;2023-12-28T15:29:13;11.40;73.30
810;DHT22;387;48.772;9.186;2023-12-28T15:31:40;11.40;73.30
810;DHT22;387;48.772;9.186;2023-12-28T15:34:06;11.40;73.30
810;DHT22;387;48.772;9.186;2023-12-28T15:36:32;11.40;73.30
810;DHT22;387;48.772;9.186;2023-12-28T15:38:57;11.40;73.50
810;DHT22;387;48.772;9.186;2023-12-28T15:41:23;11.40;73.30
810;DHT22;387;48.772;9.186;2023-12-28T15:43:48;11.40;73.30
810;DHT22;387;48.772;9.186;2023-12-28T15:46:14;11.40;73.00
810;DHT22;387;48.772;9.186;2023-12-28T15:48:39;11.30;73.20
810;DHT22;387;48.772;9.186;2023-12-28T15:51:05;11.30;73.30
810;DHT22;387;48.772;9.186;2023-12-28T15:53:31;11.20;73.30
810;DHT22;387;48.772;9.186;2023-12-28T15:55:56;11.20;73.50
810;DHT22;387;48.772;9.186;2023-12-28T15:58:22;11.20;73.30
810;DHT22;387;48.772;9.186;2023-12-28T16:00:49;11.20;73.30
810;DHT22;387;48.772;9.186;2023-12-28T16:03:14;11.20;73.30
810;DHT22;387;48.772;9.186;2023-12-28T16:05:40;11.20;73.30
810;DHT22;387;48.772;9.186;2023-12-28T16:08:05;11.20;73.30
810;DHT22;387;48.772;9.186;2023-12-28T16:10:31;11.20;73.30
810;DHT22;387;48.772;9.186;2023-12-28T16:12:57;11.20;73.30
810;DHT22;387;48.772;9.186;2023-12-28T16:15:23;11.10;73.30
810;DHT22;387;48.772;9.186;2023-12-28T16:17:49;11.10;73.30
810;DHT22;387;48.772;9.186;2023-12-28T16:20:17;11.10;73.50
810;DHT22;387;48.772;9.186;2023-12-28T16:22:43;11.10;73.50
810;DHT22;387;48.772;9.186;2023-12-28T16:25:09;11.10;73.60
810;DHT22;387;48.772;9.186;2023-12-28T16:27:35;11.10;73.70
810;DHT22;387;48.772;9.186;2023-12-28T16:30:01;11.00;73.70
810;DHT22;387;48.772;9.186;2023-12-28T16:32:26;11.00;74.00
810;DHT22;387;48.772;9.186;2023-12-28T16:34:52;11.00;74.20
810;DHT22;387;48.772;9.186;2023-12-28T16:37:18;11.00;74.20
810;DHT22;387;48.772;9.186;2023-12-28T16:39:43;11.00;74.00